createdAt,value
2023-05-02T00:00:37.540Z,100.00
2023-05-02T00:05:41.620Z,100.00
2023-05-02T00:10:46.272Z,100.00
2023-05-02T00:15:50.374Z,100.00
2023-05-02T00:20:54.422Z,100.00
2023-05-02T00:25:58.177Z,100.00
2023-05-02T00:31:02.571Z,100.00
2023-05-02T00:36:07.718Z,100.00
2023-05-02T00:41:11.630Z,100.00
2023-05-02T00:46:15.846Z,100.00
2023-05-02T00:51:20.085Z,100.00
2023-05-02T00:56:23.980Z,100.00
2023-05-02T01:01:30.460Z,100.00
2023-05-02T01:06:42.771Z,100.00
2023-05-02T01:11:57.765Z,100.00
2023-05-02T01:17:05.645Z,100.00
2023-05-02T01:22:11.549Z,100.00
2023-05-02T01:27:31.975Z,100.00
2023-05-02T01:32:40.709Z,100.00
2023-05-02T01:37:46.471Z,100.00
2023-05-02T01:42:53.216Z,100.00
2023-05-02T01:47:59.470Z,100.00
2023-05-02T01:53:05.285Z,100.00
2023-05-02T01:58:09.931Z,100.00
2023-05-02T02:03:15.505Z,100.00
2023-05-02T02:08:20.813Z,100.00
2023-05-02T02:13:36.081Z,100.00
2023-05-02T02:18:40.779Z,100.00
2023-05-02T02:23:48.572Z,100.00
2023-05-02T02:28:53.884Z,100.00
2023-05-02T02:33:57.633Z,100.00
2023-05-02T02:39:17.722Z,100.00
2023-05-02T02:44:34.870Z,100.00
2023-05-02T02:49:52.048Z,100.00
2023-05-02T02:55:11.928Z,100.00
2023-05-02T03:00:26.118Z,100.00
2023-05-02T03:05:31.657Z,100.00
2023-05-02T03:10:36.338Z,100.00
2023-05-02T03:15:42.832Z,100.00
2023-05-02T03:20:48.344Z,100.00
2023-05-02T03:25:52.022Z,100.00
2023-05-02T03:31:02.560Z,100.00
2023-05-02T03:36:10.171Z,100.00
2023-05-02T03:41:15.026Z,100.00
2023-05-02T03:46:20.776Z,100.00
2023-05-02T03:51:25.324Z,100.00
2023-05-02T03:56:32.800Z,100.00
2023-05-02T04:01:53.100Z,100.00
2023-05-02T04:07:06.415Z,100.00
2023-05-02T04:12:11.026Z,100.00
2023-05-02T04:17:19.625Z,100.00
2023-05-02T04:22:27.932Z,100.00
2023-05-02T04:27:39.073Z,100.00
2023-05-02T04:32:49.204Z,100.00
2023-05-02T04:37:53.618Z,100.00
2023-05-02T04:42:59.143Z,100.00
2023-05-02T04:48:09.497Z,100.00
2023-05-02T04:53:16.442Z,100.00
2023-05-02T04:58:21.123Z,100.00
2023-05-02T05:03:37.125Z,100.00
2023-05-02T05:08:46.006Z,100.00
2023-05-02T05:13:53.165Z,100.00
2023-05-02T05:18:58.380Z,100.00
2023-05-02T05:24:03.843Z,100.00
2023-05-02T05:29:09.232Z,100.00
2023-05-02T05:34:19.385Z,100.00
2023-05-02T05:39:26.081Z,100.00
2023-05-02T05:44:32.991Z,100.00
2023-05-02T05:49:38.939Z,100.00
2023-05-02T05:54:47.319Z,100.00
2023-05-02T05:59:51.483Z,100.00
2023-05-02T06:04:55.578Z,100.00
2023-05-02T06:10:02.326Z,100.00
2023-05-02T06:15:09.283Z,100.00
2023-05-02T06:20:14.624Z,100.00
2023-05-02T06:25:19.542Z,100.00
2023-05-02T06:30:23.950Z,100.00
2023-05-02T06:35:27.871Z,97.02
2023-05-02T06:40:32.526Z,92.25
2023-05-02T06:45:36.968Z,90.37
2023-05-02T06:50:42.021Z,90.33
2023-05-02T06:55:48.916Z,80.74
2023-05-02T07:00:53.106Z,82.26
2023-05-02T07:05:56.812Z,79.84
2023-05-02T07:11:01.767Z,81.31
2023-05-02T07:16:06.781Z,80.44
2023-05-02T07:21:10.926Z,76.59
2023-05-02T07:26:14.592Z,66.91
2023-05-02T07:31:19.314Z,64.13
2023-05-02T07:36:23.178Z,58.27
2023-05-02T07:41:27.226Z,55.55
2023-05-02T07:46:32.002Z,47.17
2023-05-02T07:51:36.762Z,49.49
2023-05-02T07:56:41.545Z,50.53
2023-05-02T08:01:45.825Z,55.24
2023-05-02T08:06:50.543Z,49.07
2023-05-02T08:11:55.422Z,49.20
2023-05-02T08:17:01.871Z,50.19
2023-05-02T08:22:09.168Z,49.76
2023-05-02T08:27:16.135Z,54.41
2023-05-02T08:32:20.125Z,58.47
2023-05-02T08:37:25.489Z,62.10
2023-05-02T08:42:34.095Z,64.33
2023-05-02T08:47:41.895Z,66.84
2023-05-02T08:52:48.149Z,67.17
2023-05-02T08:57:52.438Z,68.24
2023-05-02T09:03:08.704Z,70.67
2023-05-02T09:08:14.610Z,69.28
2023-05-02T09:13:38.986Z,70.32
2023-05-02T09:18:50.535Z,69.24
2023-05-02T09:24:00.149Z,73.15
2023-05-02T09:29:05.983Z,75.75
2023-05-02T09:34:15.250Z,79.63
2023-05-02T09:39:25.817Z,84.08
2023-05-02T09:44:39.673Z,89.60
2023-05-02T09:49:46.481Z,95.16
2023-05-02T09:54:53.195Z,96.67
2023-05-02T09:59:58.164Z,98.85
2023-05-02T10:05:05.094Z,99.76
2023-05-02T10:10:15.625Z,100.00
2023-05-02T10:15:24.836Z,100.00
2023-05-02T10:20:37.885Z,100.00
2023-05-02T10:25:42.979Z,100.00
2023-05-02T10:30:51.928Z,100.00
2023-05-02T10:35:56.385Z,100.00
2023-05-02T10:41:06.785Z,100.00
2023-05-02T10:46:34.285Z,100.00
2023-05-02T10:51:44.259Z,100.00
2023-05-02T10:57:00.390Z,100.00
2023-05-02T11:02:07.069Z,100.00
2023-05-02T11:07:11.136Z,100.00
2023-05-02T11:12:48.972Z,100.00
2023-05-02T11:18:12.694Z,100.00
2023-05-02T11:23:17.148Z,100.00
2023-05-02T11:28:50.780Z,100.00
2023-05-02T11:34:05.022Z,94.55
2023-05-02T11:39:22.158Z,100.00
2023-05-02T11:44:26.558Z,100.00
2023-05-02T11:49:52.184Z,100.00
2023-05-02T13:03:24.759Z,100.00
2023-05-02T13:08:28.571Z,100.00
2023-05-02T13:13:33.861Z,100.00
2023-05-02T13:18:37.631Z,100.00
2023-05-02T13:23:44.579Z,100.00
2023-05-02T13:28:47.976Z,100.00
2023-05-02T13:33:52.361Z,100.00
2023-05-02T13:38:59.613Z,100.00
2023-05-02T13:44:05.401Z,100.00
2023-05-02T13:49:09.303Z,100.00
2023-05-02T13:54:12.932Z,100.00
2023-05-02T13:59:16.371Z,100.00
2023-05-02T14:04:21.554Z,100.00
2023-05-02T14:09:25.769Z,100.00
2023-05-02T14:14:29.524Z,100.00
2023-05-02T14:19:33.145Z,100.00
2023-05-02T14:24:36.749Z,100.00
2023-05-02T14:29:41.232Z,100.00
2023-05-02T14:34:52.393Z,100.00
2023-05-02T14:39:56.814Z,100.00
2023-05-02T14:45:02.578Z,100.00
2023-05-02T14:50:07.114Z,100.00
2023-05-02T14:55:11.091Z,100.00
2023-05-02T15:00:16.522Z,100.00
2023-05-02T15:05:20.270Z,100.00
2023-05-02T15:10:24.049Z,100.00
2023-05-02T15:15:29.849Z,100.00
2023-05-02T15:20:33.114Z,100.00
2023-05-02T15:25:37.234Z,100.00
2023-05-02T15:30:40.859Z,100.00
2023-05-02T15:35:56.793Z,100.00
2023-05-02T15:41:01.445Z,100.00
2023-05-02T15:46:05.373Z,100.00
2023-05-02T15:51:11.318Z,100.00
2023-05-02T15:56:16.030Z,100.00
2023-05-02T16:01:21.562Z,100.00
2023-05-02T16:06:25.893Z,100.00
2023-05-02T16:11:29.105Z,100.00
2023-05-02T16:16:34.441Z,100.00
2023-05-02T16:21:37.588Z,100.00
2023-05-02T16:26:41.197Z,100.00
2023-05-02T16:31:45.256Z,100.00
2023-05-02T16:36:48.977Z,100.00
2023-05-02T16:41:52.844Z,100.00
2023-05-02T16:46:57.011Z,100.00
2023-05-02T16:52:00.610Z,100.00
2023-05-02T16:57:04.973Z,100.00
2023-05-02T17:02:09.223Z,100.00
2023-05-02T17:07:13.384Z,100.00
2023-05-02T17:12:22.708Z,100.00
2023-05-02T17:17:26.711Z,100.00
2023-05-02T17:22:31.133Z,100.00
2023-05-02T17:28:11.377Z,100.00
2023-05-02T17:33:15.329Z,100.00
2023-05-02T17:38:19.690Z,100.00
2023-05-02T17:43:23.669Z,100.00
2023-05-02T17:48:28.188Z,100.00
2023-05-02T17:53:32.398Z,100.00
2023-05-02T17:58:36.641Z,100.00
2023-05-02T18:03:40.474Z,100.00
2023-05-02T18:08:46.074Z,100.00
2023-05-02T18:13:50.073Z,100.00
2023-05-02T18:18:54.297Z,100.00
2023-05-02T18:23:58.283Z,100.00
2023-05-02T18:29:02.504Z,100.00
2023-05-02T18:34:06.411Z,100.00
2023-05-02T18:39:10.623Z,100.00
2023-05-02T18:44:14.705Z,100.00
2023-05-02T18:49:19.122Z,100.00
2023-05-02T18:54:28.018Z,100.00
2023-05-02T18:59:32.335Z,100.00
2023-05-02T19:04:35.440Z,100.00
2023-05-02T19:09:40.677Z,100.00
2023-05-02T19:14:45.150Z,100.00
2023-05-02T19:19:49.376Z,100.00
2023-05-02T19:24:53.822Z,100.00
2023-05-02T19:29:58.942Z,100.00
2023-05-02T19:35:04.669Z,100.00
2023-05-02T19:40:09.113Z,100.00
2023-05-02T19:45:14.049Z,100.00
2023-05-02T19:50:18.102Z,100.00
2023-05-02T19:55:22.093Z,100.00
2023-05-02T20:00:26.254Z,100.00
2023-05-02T20:05:29.481Z,100.00
2023-05-02T20:10:34.046Z,100.00
2023-05-02T20:15:37.697Z,100.00
2023-05-02T20:20:41.953Z,100.00
2023-05-02T20:25:45.873Z,100.00
2023-05-02T20:30:50.195Z,100.00
2023-05-02T20:35:56.605Z,100.00
2023-05-02T20:41:01.081Z,100.00
2023-05-02T20:46:13.667Z,100.00
2023-05-02T20:51:17.343Z,100.00
2023-05-02T20:56:21.344Z,100.00
2023-05-02T21:01:27.045Z,100.00
2023-05-02T21:06:34.352Z,100.00
2023-05-02T21:11:38.811Z,100.00
2023-05-02T21:16:42.720Z,100.00
2023-05-02T21:21:46.722Z,100.00
2023-05-02T21:26:50.796Z,100.00
2023-05-02T21:31:54.905Z,100.00
2023-05-02T21:36:59.017Z,100.00
2023-05-02T21:42:02.900Z,100.00
2023-05-02T21:47:06.832Z,100.00
2023-05-02T21:52:10.510Z,100.00
2023-05-02T21:57:14.480Z,100.00
2023-05-02T22:02:18.508Z,100.00
2023-05-02T22:07:22.547Z,100.00
2023-05-02T22:12:27.711Z,100.00
2023-05-02T22:17:33.034Z,100.00
2023-05-02T22:22:37.287Z,100.00
2023-05-02T22:27:41.446Z,100.00
2023-05-02T22:32:45.405Z,100.00
2023-05-02T22:37:49.973Z,100.00
2023-05-02T22:42:53.788Z,100.00
2023-05-02T22:47:57.637Z,100.00
2023-05-02T22:53:04.299Z,100.00
2023-05-02T22:58:08.631Z,100.00
2023-05-02T23:03:12.857Z,100.00
2023-05-02T23:08:16.633Z,100.00
2023-05-02T23:13:20.577Z,100.00
2023-05-02T23:18:24.562Z,100.00
2023-05-02T23:23:28.422Z,100.00
2023-05-02T23:28:32.014Z,100.00
2023-05-02T23:33:36.340Z,100.00
2023-05-02T23:38:41.683Z,100.00
2023-05-02T23:43:45.391Z,100.00
2023-05-02T23:48:49.724Z,100.00
2023-05-02T23:53:53.632Z,100.00
2023-05-02T23:58:56.757Z,100.00
